Tyrone, Pennsylvania
Current Conditions -  °F | °C
As of 6:53 PM on Thursday 27 Nov 2014 (Local Time) from KUNV Reporting Station
Overcast Overcast  
Wind Chill: -4°   Ceiling: 6500
Heat Index:   Visibility: 10mi
Dew Point: -3°   Wind: 9mph
Humidity: 80%   Direction: 290°WNW
Pressure: 30.07"   Gusts: NA
Location:  40.68°N, 78.24°W
Report Text: KUNV 272353Z 29008KT 10SM OVC065 00/M03 A3007
Loading
Personal Weather Stations






























Interactive Weather Map New forecast layout! Learn more

10-Day Weather Forecast

Advertisements
Track Severe Weather on mobile